VYA605 PABR-PACD
Flight info
| Callsign | VYA605 |
|---|---|
| Flight time | 2h 21m |
| Altitude | 40000 |
| Route | BRW J123 OME/N0468F390 J123 BET Q59 CDB |
| Aircraft | CL60/M-SADE3FGHIJ3J4J7P2RWXY/HB1D1 |
Departure
| Time | 2026-04-23 19:04 |
|---|---|
| Airport | Wiley Post Will Rogers Memorial Airport (PABR) |
Arrival
| Time | 2026-04-23 21:25 |
|---|---|
| Airport | Cold Bay Airport (PACD) |
| Time | Latitude | Longitude | Altitude | Speed | Heading |
|---|---|---|---|---|---|
| 2026-04-23 18:29 | 71.28722 | -156.75752 | 21 ft | 0 kts | 0° |
| 2026-04-23 18:58 | 71.28725 | -156.75807 | 21 ft | 8 kts | 251° |
| 2026-04-23 18:59 | 71.28699 | -156.76030 | 20 ft | 13 kts | 250° |
| 2026-04-23 18:59 | 71.28681 | -156.76361 | 18 ft | 18 kts | 270° |
| 2026-04-23 18:59 | 71.28682 | -156.76775 | 17 ft | 17 kts | 270° |
| 2026-04-23 18:59 | 71.28683 | -156.77141 | 17 ft | 15 kts | 270° |
| 2026-04-23 19:00 | 71.28683 | -156.77420 | 18 ft | 13 kts | 269° |
| 2026-04-23 19:00 | 71.28683 | -156.77751 | 18 ft | 16 kts | 270° |
| 2026-04-23 19:00 | 71.28680 | -156.78084 | 19 ft | 8 kts | 269° |
| 2026-04-23 19:00 | 71.28681 | -156.78328 | 19 ft | 13 kts | 270° |
| 2026-04-23 19:01 | 71.28670 | -156.78656 | 19 ft | 17 kts | 253° |
| 2026-04-23 19:01 | 71.28634 | -156.79050 | 19 ft | 20 kts | 255° |
| 2026-04-23 19:01 | 71.28607 | -156.79280 | 18 ft | 5 kts | 234° |
| 2026-04-23 19:01 | 71.28565 | -156.79326 | 18 ft | 11 kts | 178° |
| 2026-04-23 19:02 | 71.28548 | -156.79324 | 18 ft | 0 kts | 184° |
| 2026-04-23 19:02 | 71.28508 | -156.79373 | 19 ft | 14 kts | 222° |
| 2026-04-23 19:02 | 71.28475 | -156.79666 | 18 ft | 14 kts | 256° |
| 2026-04-23 19:02 | 71.28477 | -156.79822 | 17 ft | 4 kts | 347° |
| 2026-04-23 19:03 | 71.28488 | -156.79704 | 18 ft | 11 kts | 91° |
| 2026-04-23 19:03 | 71.28489 | -156.78926 | 19 ft | 61 kts | 89° |
| 2026-04-23 19:03 | 71.28489 | -156.77147 | 17 ft | 101 kts | 90° |
| 2026-04-23 19:03 | 71.28477 | -156.74342 | 258 ft | 150 kts | 89° |
| 2026-04-23 19:04 | 71.28397 | -156.71046 | 1113 ft | 158 kts | 94° |
| 2026-04-23 19:04 | 71.28304 | -156.67677 | 1939 ft | 161 kts | 92° |
| 2026-04-23 19:04 | 71.27994 | -156.64439 | 3128 ft | 167 kts | 124° |
| 2026-04-23 19:04 | 71.27148 | -156.62083 | 4421 ft | 175 kts | 145° |
| 2026-04-23 19:05 | 71.25880 | -156.61295 | 5271 ft | 211 kts | 175° |
| 2026-04-23 19:05 | 71.24304 | -156.61787 | 5995 ft | 244 kts | 181° |
| 2026-04-23 19:05 | 71.22608 | -156.62480 | 7157 ft | 256 kts | 182° |
| 2026-04-23 19:05 | 71.20824 | -156.63500 | 8422 ft | 268 kts | 197° |
| 2026-04-23 19:06 | 71.19166 | -156.66136 | 9697 ft | 276 kts | 206° |
| 2026-04-23 19:06 | 71.17491 | -156.69078 | 10706 ft | 290 kts | 206° |
| 2026-04-23 19:06 | 71.15635 | -156.72284 | 11174 ft | 320 kts | 207° |
| 2026-04-23 19:06 | 71.13664 | -156.75673 | 11971 ft | 335 kts | 207° |
| 2026-04-23 19:07 | 71.11598 | -156.79213 | 12966 ft | 343 kts | 207° |
| 2026-04-23 19:07 | 71.09501 | -156.82793 | 13959 ft | 349 kts | 207° |
| 2026-04-23 19:07 | 71.07403 | -156.86357 | 14941 ft | 353 kts | 208° |
| 2026-04-23 19:07 | 71.05249 | -156.90006 | 15882 ft | 357 kts | 207° |
| 2026-04-23 19:08 | 71.03060 | -156.93697 | 16709 ft | 363 kts | 208° |
| 2026-04-23 19:08 | 71.00851 | -156.97407 | 17545 ft | 367 kts | 208° |
| 2026-04-23 19:08 | 70.98598 | -157.01178 | 18365 ft | 371 kts | 208° |
| 2026-04-23 19:08 | 70.96333 | -157.04958 | 19133 ft | 375 kts | 208° |
| 2026-04-23 19:09 | 70.94029 | -157.08789 | 19874 ft | 379 kts | 207° |
| 2026-04-23 19:09 | 70.91702 | -157.12643 | 20527 ft | 385 kts | 207° |
| 2026-04-23 19:09 | 70.89375 | -157.16487 | 21152 ft | 390 kts | 207° |
| 2026-04-23 19:09 | 70.86965 | -157.20456 | 21769 ft | 395 kts | 207° |
| 2026-04-23 19:10 | 70.84541 | -157.24435 | 22326 ft | 400 kts | 207° |
| 2026-04-23 19:10 | 70.82080 | -157.28464 | 22898 ft | 404 kts | 206° |
| 2026-04-23 19:10 | 70.79604 | -157.32504 | 23411 ft | 409 kts | 206° |
| 2026-04-23 19:10 | 70.77093 | -157.36587 | 23927 ft | 414 kts | 206° |
| 2026-04-23 19:11 | 70.74527 | -157.40750 | 24478 ft | 417 kts | 206° |
| 2026-04-23 19:11 | 70.71966 | -157.44890 | 25023 ft | 419 kts | 207° |
| 2026-04-23 19:11 | 70.69395 | -157.49036 | 25572 ft | 420 kts | 206° |
| 2026-04-23 19:11 | 70.66821 | -157.53169 | 26079 ft | 423 kts | 207° |
| 2026-04-23 19:12 | 70.64221 | -157.57336 | 26494 ft | 428 kts | 206° |
| 2026-04-23 19:12 | 70.61551 | -157.61603 | 26941 ft | 432 kts | 206° |
| 2026-04-23 19:12 | 70.58942 | -157.65758 | 27444 ft | 433 kts | 206° |
| 2026-04-23 19:12 | 70.56289 | -157.69977 | 27881 ft | 436 kts | 206° |
| 2026-04-23 19:13 | 70.53596 | -157.74237 | 28188 ft | 441 kts | 205° |
| 2026-04-23 19:13 | 70.50876 | -157.78526 | 28537 ft | 445 kts | 206° |
| 2026-04-23 19:13 | 70.48128 | -157.82846 | 28886 ft | 448 kts | 206° |
| 2026-04-23 19:13 | 70.45346 | -157.87210 | 29250 ft | 450 kts | 205° |
| 2026-04-23 19:14 | 70.42575 | -157.91540 | 29599 ft | 452 kts | 206° |
| 2026-04-23 19:14 | 70.39781 | -157.95892 | 29970 ft | 453 kts | 206° |
| 2026-04-23 19:14 | 70.36965 | -158.00266 | 30317 ft | 454 kts | 206° |
| 2026-04-23 19:14 | 70.34180 | -158.04582 | 30547 ft | 457 kts | 206° |
| 2026-04-23 19:15 | 70.31325 | -158.08990 | 30780 ft | 459 kts | 205° |
| 2026-04-23 19:15 | 70.28491 | -158.13350 | 31010 ft | 461 kts | 206° |
| 2026-04-23 19:15 | 70.25603 | -158.17783 | 31185 ft | 464 kts | 205° |
| 2026-04-23 19:15 | 70.22741 | -158.22159 | 31370 ft | 466 kts | 206° |
| 2026-04-23 19:16 | 70.19854 | -158.26559 | 31548 ft | 467 kts | 206° |
| 2026-04-23 19:16 | 70.16964 | -158.30951 | 31714 ft | 468 kts | 206° |
| 2026-04-23 19:16 | 70.14033 | -158.35388 | 31867 ft | 470 kts | 206° |
| 2026-04-23 19:17 | 70.08182 | -158.44208 | 32142 ft | 471 kts | 206° |
| 2026-04-23 19:17 | 70.05280 | -158.48563 | 32304 ft | 471 kts | 206° |
| 2026-04-23 19:17 | 70.02325 | -158.52982 | 32501 ft | 470 kts | 206° |
| 2026-04-23 19:17 | 69.99404 | -158.57335 | 32678 ft | 470 kts | 206° |
| 2026-04-23 19:18 | 69.96480 | -158.61681 | 32857 ft | 468 kts | 206° |
| 2026-04-23 19:18 | 69.93612 | -158.65930 | 33066 ft | 467 kts | 205° |
| 2026-04-23 19:18 | 69.90715 | -158.70207 | 33256 ft | 465 kts | 205° |
| 2026-04-23 19:18 | 69.87838 | -158.74442 | 33435 ft | 464 kts | 205° |
| 2026-04-23 19:19 | 69.82103 | -158.82844 | 33787 ft | 463 kts | 205° |
| 2026-04-23 19:19 | 69.79203 | -158.87074 | 33943 ft | 462 kts | 206° |
| 2026-04-23 19:20 | 69.73460 | -158.95410 | 34245 ft | 462 kts | 206° |
| 2026-04-23 19:20 | 69.70598 | -158.99547 | 34365 ft | 462 kts | 206° |
| 2026-04-23 19:20 | 69.67712 | -159.03703 | 34487 ft | 462 kts | 206° |
| 2026-04-23 19:20 | 69.64852 | -159.07811 | 34605 ft | 462 kts | 206° |
| 2026-04-23 19:21 | 69.61974 | -159.11931 | 34739 ft | 462 kts | 206° |
| 2026-04-23 19:21 | 69.56210 | -159.20148 | 35030 ft | 461 kts | 206° |
| 2026-04-23 19:21 | 69.53332 | -159.24231 | 35167 ft | 461 kts | 206° |
| 2026-04-23 19:22 | 69.50489 | -159.28253 | 35318 ft | 460 kts | 206° |
| 2026-04-23 19:22 | 69.47659 | -159.32245 | 35451 ft | 460 kts | 206° |
| 2026-04-23 19:22 | 69.41898 | -159.40332 | 35699 ft | 460 kts | 206° |
| 2026-04-23 19:23 | 69.39048 | -159.44318 | 35827 ft | 459 kts | 206° |
| 2026-04-23 19:23 | 69.36164 | -159.48337 | 35942 ft | 459 kts | 206° |
| 2026-04-23 19:23 | 69.33307 | -159.52307 | 36053 ft | 459 kts | 206° |
| 2026-04-23 19:24 | 69.27562 | -159.60255 | 36270 ft | 459 kts | 206° |
| 2026-04-23 19:24 | 69.24668 | -159.64241 | 36376 ft | 459 kts | 206° |
| 2026-04-23 19:24 | 69.19034 | -159.71967 | 36558 ft | 460 kts | 205° |
| 2026-04-23 19:25 | 69.13271 | -159.79823 | 36751 ft | 459 kts | 205° |
| 2026-04-23 19:25 | 69.07526 | -159.87608 | 36924 ft | 459 kts | 205° |
| 2026-04-23 19:26 | 69.01721 | -159.95207 | 37086 ft | 459 kts | 201° |
| 2026-04-23 19:26 | 68.98668 | -159.97972 | 37159 ft | 459 kts | 194° |
| 2026-04-23 19:27 | 68.92387 | -160.00595 | 37288 ft | 460 kts | 186° |
| 2026-04-23 19:27 | 68.82909 | -160.03476 | 37531 ft | 459 kts | 186° |
| 2026-04-23 19:28 | 68.76566 | -160.05392 | 37689 ft | 459 kts | 186° |
| 2026-04-23 19:28 | 68.70222 | -160.07295 | 37824 ft | 459 kts | 186° |
| 2026-04-23 19:29 | 68.60686 | -160.10135 | 37916 ft | 462 kts | 186° |
| 2026-04-23 19:30 | 68.51052 | -160.12978 | 37924 ft | 467 kts | 186° |
| 2026-04-23 19:31 | 68.41360 | -160.15813 | 37938 ft | 471 kts | 186° |
| 2026-04-23 19:31 | 68.34824 | -160.17709 | 37954 ft | 472 kts | 186° |
| 2026-04-23 19:32 | 68.28280 | -160.19598 | 37961 ft | 472 kts | 186° |
| 2026-04-23 19:32 | 68.21769 | -160.21466 | 37983 ft | 472 kts | 186° |
| 2026-04-23 19:33 | 68.15226 | -160.23334 | 37995 ft | 471 kts | 186° |
| 2026-04-23 19:33 | 68.05377 | -160.26123 | 38031 ft | 471 kts | 186° |
| 2026-04-23 19:34 | 67.98847 | -160.27959 | 38041 ft | 471 kts | 186° |
| 2026-04-23 19:35 | 67.89064 | -160.30692 | 37979 ft | 472 kts | 186° |
| 2026-04-23 19:35 | 67.82557 | -160.32495 | 37960 ft | 471 kts | 186° |
| 2026-04-23 19:36 | 67.76062 | -160.34286 | 37945 ft | 471 kts | 186° |
| 2026-04-23 19:36 | 67.69519 | -160.36079 | 37940 ft | 471 kts | 186° |
| 2026-04-23 19:37 | 67.62995 | -160.37859 | 37937 ft | 471 kts | 186° |
| 2026-04-23 19:37 | 67.56485 | -160.39624 | 37928 ft | 471 kts | 186° |
| 2026-04-23 19:38 | 67.49949 | -160.41385 | 37920 ft | 470 kts | 186° |
| 2026-04-23 19:38 | 67.43465 | -160.43124 | 37925 ft | 469 kts | 186° |
| 2026-04-23 19:39 | 67.36975 | -160.44855 | 37925 ft | 469 kts | 186° |
| 2026-04-23 19:39 | 67.30523 | -160.46565 | 37931 ft | 470 kts | 186° |
| 2026-04-23 19:40 | 67.24006 | -160.48285 | 37957 ft | 470 kts | 186° |
| 2026-04-23 19:40 | 67.17452 | -160.50005 | 37987 ft | 470 kts | 186° |
| 2026-04-23 19:41 | 67.10892 | -160.51715 | 38012 ft | 470 kts | 186° |
| 2026-04-23 19:41 | 67.04352 | -160.53413 | 38023 ft | 470 kts | 186° |
| 2026-04-23 19:42 | 66.97852 | -160.55090 | 38029 ft | 470 kts | 186° |
| 2026-04-23 19:42 | 66.91331 | -160.56764 | 38027 ft | 469 kts | 186° |
| 2026-04-23 19:43 | 66.84843 | -160.58421 | 38019 ft | 469 kts | 186° |
| 2026-04-23 19:43 | 66.78333 | -160.60074 | 38023 ft | 470 kts | 186° |
| 2026-04-23 19:44 | 66.71828 | -160.61717 | 38021 ft | 470 kts | 186° |
| 2026-04-23 19:44 | 66.65298 | -160.63359 | 38024 ft | 471 kts | 186° |
| 2026-04-23 19:45 | 66.58773 | -160.64989 | 38024 ft | 471 kts | 186° |
| 2026-04-23 19:45 | 66.52319 | -160.66594 | 38019 ft | 471 kts | 185° |
| 2026-04-23 19:46 | 66.45765 | -160.68214 | 38017 ft | 470 kts | 185° |
| 2026-04-23 19:46 | 66.39301 | -160.69806 | 38011 ft | 470 kts | 185° |
| 2026-04-23 19:47 | 66.32790 | -160.71399 | 38003 ft | 470 kts | 185° |
| 2026-04-23 19:47 | 66.26251 | -160.72990 | 37999 ft | 470 kts | 185° |
| 2026-04-23 19:48 | 66.19733 | -160.74570 | 37986 ft | 470 kts | 185° |
| 2026-04-23 19:48 | 66.13205 | -160.76143 | 37976 ft | 470 kts | 185° |
| 2026-04-23 19:49 | 66.06691 | -160.77704 | 37973 ft | 470 kts | 185° |
| 2026-04-23 19:49 | 66.00195 | -160.79253 | 37971 ft | 471 kts | 185° |
| 2026-04-23 19:50 | 65.93675 | -160.80800 | 37969 ft | 472 kts | 185° |
| 2026-04-23 19:50 | 65.87128 | -160.82346 | 37968 ft | 471 kts | 185° |
| 2026-04-23 19:51 | 65.80633 | -160.83872 | 37972 ft | 471 kts | 185° |
| 2026-04-23 19:51 | 65.74132 | -160.85390 | 37984 ft | 470 kts | 185° |
| 2026-04-23 19:52 | 65.67607 | -160.86908 | 37961 ft | 470 kts | 185° |
| 2026-04-23 19:52 | 65.61118 | -160.88409 | 37948 ft | 469 kts | 185° |
| 2026-04-23 19:53 | 65.54634 | -160.89902 | 37937 ft | 469 kts | 185° |
| 2026-04-23 19:53 | 65.48128 | -160.91391 | 37949 ft | 469 kts | 185° |
| 2026-04-23 19:54 | 65.41611 | -160.92877 | 37936 ft | 469 kts | 185° |
| 2026-04-23 19:54 | 65.35072 | -160.94360 | 37953 ft | 468 kts | 185° |
| 2026-04-23 19:55 | 65.28623 | -160.95815 | 37949 ft | 468 kts | 185° |
| 2026-04-23 19:55 | 65.22081 | -160.97284 | 37956 ft | 468 kts | 185° |
| 2026-04-23 19:56 | 65.15559 | -160.98741 | 37940 ft | 468 kts | 185° |
| 2026-04-23 19:56 | 65.09100 | -161.00177 | 37939 ft | 468 kts | 185° |
| 2026-04-23 19:57 | 65.02660 | -161.01602 | 37938 ft | 468 kts | 185° |
| 2026-04-23 19:57 | 64.96191 | -161.03026 | 37933 ft | 467 kts | 185° |
| 2026-04-23 19:58 | 64.89746 | -161.04437 | 37940 ft | 466 kts | 185° |
| 2026-04-23 19:58 | 64.83313 | -161.05841 | 37939 ft | 465 kts | 185° |
| 2026-04-23 19:59 | 64.76897 | -161.07233 | 37935 ft | 465 kts | 185° |
| 2026-04-23 19:59 | 64.70461 | -161.08623 | 37937 ft | 465 kts | 185° |
| 2026-04-23 20:00 | 64.64066 | -161.09998 | 37938 ft | 464 kts | 185° |
| 2026-04-23 20:00 | 64.57616 | -161.11377 | 37941 ft | 464 kts | 185° |
| 2026-04-23 20:01 | 64.51222 | -161.12738 | 37924 ft | 463 kts | 185° |
| 2026-04-23 20:01 | 64.44819 | -161.14094 | 37916 ft | 463 kts | 185° |
| 2026-04-23 20:02 | 64.38416 | -161.15445 | 37916 ft | 462 kts | 185° |
| 2026-04-23 20:02 | 64.32032 | -161.16785 | 37912 ft | 461 kts | 185° |
| 2026-04-23 20:03 | 64.25655 | -161.18117 | 37918 ft | 460 kts | 185° |
| 2026-04-23 20:03 | 64.19269 | -161.19444 | 37913 ft | 459 kts | 185° |
| 2026-04-23 20:04 | 64.12931 | -161.20756 | 37910 ft | 459 kts | 185° |
| 2026-04-23 20:04 | 64.06572 | -161.22066 | 37904 ft | 459 kts | 185° |
| 2026-04-23 20:05 | 64.00230 | -161.23367 | 37906 ft | 459 kts | 185° |
| 2026-04-23 20:05 | 63.93883 | -161.24663 | 37908 ft | 459 kts | 185° |
| 2026-04-23 20:06 | 63.87547 | -161.25951 | 37901 ft | 458 kts | 185° |
| 2026-04-23 20:06 | 63.81225 | -161.27229 | 37902 ft | 458 kts | 185° |
| 2026-04-23 20:07 | 63.74886 | -161.28507 | 37895 ft | 457 kts | 185° |
| 2026-04-23 20:07 | 63.68549 | -161.29776 | 37896 ft | 457 kts | 185° |
| 2026-04-23 20:08 | 63.62234 | -161.31036 | 37895 ft | 456 kts | 185° |
| 2026-04-23 20:08 | 63.55897 | -161.32297 | 37887 ft | 456 kts | 185° |
| 2026-04-23 20:09 | 63.49559 | -161.33550 | 37890 ft | 457 kts | 185° |
| 2026-04-23 20:09 | 63.43245 | -161.34793 | 37882 ft | 457 kts | 185° |
| 2026-04-23 20:10 | 63.36890 | -161.36040 | 37856 ft | 457 kts | 185° |
| 2026-04-23 20:10 | 63.30548 | -161.37277 | 37855 ft | 456 kts | 185° |
| 2026-04-23 20:11 | 63.24249 | -161.38503 | 37835 ft | 455 kts | 185° |
| 2026-04-23 20:11 | 63.17894 | -161.39732 | 37825 ft | 454 kts | 185° |
| 2026-04-23 20:12 | 63.11626 | -161.40941 | 37821 ft | 453 kts | 185° |
| 2026-04-23 20:12 | 63.05310 | -161.42152 | 37813 ft | 453 kts | 185° |
| 2026-04-23 20:13 | 62.99014 | -161.43355 | 37798 ft | 454 kts | 185° |
| 2026-04-23 20:13 | 62.92717 | -161.44553 | 37794 ft | 454 kts | 185° |
| 2026-04-23 20:14 | 62.86584 | -161.45714 | 37796 ft | 455 kts | 185° |
| 2026-04-23 20:14 | 62.80269 | -161.46905 | 37817 ft | 455 kts | 185° |
| 2026-04-23 20:15 | 62.73957 | -161.48090 | 37821 ft | 455 kts | 185° |
| 2026-04-23 20:15 | 62.67600 | -161.49278 | 37819 ft | 455 kts | 185° |
| 2026-04-23 20:16 | 62.61262 | -161.50458 | 37831 ft | 455 kts | 185° |
| 2026-04-23 20:16 | 62.58148 | -161.51036 | 37958 ft | 452 kts | 185° |
| 2026-04-23 20:16 | 62.54999 | -161.51619 | 38196 ft | 449 kts | 185° |
| 2026-04-23 20:16 | 62.51913 | -161.52190 | 38387 ft | 446 kts | 185° |
| 2026-04-23 20:17 | 62.48834 | -161.52757 | 38530 ft | 445 kts | 185° |
| 2026-04-23 20:17 | 62.42665 | -161.53891 | 38678 ft | 445 kts | 185° |
| 2026-04-23 20:18 | 62.36506 | -161.55019 | 38795 ft | 446 kts | 185° |
| 2026-04-23 20:18 | 62.30342 | -161.56142 | 38925 ft | 446 kts | 185° |
| 2026-04-23 20:19 | 62.24143 | -161.57268 | 39040 ft | 447 kts | 185° |
| 2026-04-23 20:19 | 62.17967 | -161.58385 | 39133 ft | 448 kts | 185° |
| 2026-04-23 20:20 | 62.11783 | -161.59499 | 39239 ft | 448 kts | 185° |
| 2026-04-23 20:20 | 62.05587 | -161.60609 | 39367 ft | 447 kts | 185° |
| 2026-04-23 20:21 | 61.99401 | -161.61714 | 39460 ft | 447 kts | 185° |
| 2026-04-23 20:21 | 61.93192 | -161.62819 | 39539 ft | 448 kts | 185° |
| 2026-04-23 20:22 | 61.87065 | -161.63905 | 39624 ft | 448 kts | 185° |
| 2026-04-23 20:22 | 61.80888 | -161.64995 | 39714 ft | 448 kts | 185° |
| 2026-04-23 20:23 | 61.74741 | -161.66077 | 39808 ft | 449 kts | 185° |
| 2026-04-23 20:23 | 61.68523 | -161.67165 | 39816 ft | 451 kts | 185° |
| 2026-04-23 20:24 | 61.62296 | -161.68251 | 39819 ft | 453 kts | 185° |
| 2026-04-23 20:24 | 61.55974 | -161.69348 | 39818 ft | 456 kts | 185° |
| 2026-04-23 20:25 | 61.49663 | -161.70441 | 39816 ft | 458 kts | 185° |
| 2026-04-23 20:25 | 61.43319 | -161.71533 | 39816 ft | 459 kts | 185° |
| 2026-04-23 20:26 | 61.36978 | -161.72621 | 39814 ft | 460 kts | 185° |
| 2026-04-23 20:26 | 61.30598 | -161.73712 | 39820 ft | 459 kts | 185° |
| 2026-04-23 20:27 | 61.28002 | -161.74150 | 39815 ft | 459 kts | 185° |
| 2026-04-23 20:27 | 61.21527 | -161.75249 | 39811 ft | 459 kts | 185° |
| 2026-04-23 20:28 | 61.15160 | -161.76327 | 39810 ft | 459 kts | 185° |
| 2026-04-23 20:28 | 61.08856 | -161.77391 | 39808 ft | 459 kts | 185° |
| 2026-04-23 20:29 | 61.02468 | -161.78464 | 39810 ft | 459 kts | 185° |
| 2026-04-23 20:29 | 60.96102 | -161.79529 | 39810 ft | 459 kts | 185° |
| 2026-04-23 20:30 | 60.89777 | -161.80583 | 39809 ft | 459 kts | 185° |
| 2026-04-23 20:30 | 60.80207 | -161.82169 | 39811 ft | 459 kts | 185° |
| 2026-04-23 20:31 | 60.73832 | -161.83507 | 39815 ft | 458 kts | 186° |
| 2026-04-23 20:31 | 60.67547 | -161.84943 | 39814 ft | 458 kts | 186° |
| 2026-04-23 20:32 | 60.61204 | -161.86385 | 39811 ft | 458 kts | 186° |
| 2026-04-23 20:32 | 60.54846 | -161.87823 | 39811 ft | 458 kts | 186° |
| 2026-04-23 20:33 | 60.48502 | -161.89253 | 39801 ft | 457 kts | 186° |
| 2026-04-23 20:33 | 60.42196 | -161.90669 | 39795 ft | 457 kts | 187° |
| 2026-04-23 20:34 | 60.35881 | -161.92081 | 39787 ft | 457 kts | 186° |
| 2026-04-23 20:34 | 60.29581 | -161.93484 | 39793 ft | 457 kts | 186° |
| 2026-04-23 20:35 | 60.23253 | -161.94887 | 39793 ft | 456 kts | 186° |
| 2026-04-23 20:35 | 60.16953 | -161.96278 | 39792 ft | 457 kts | 186° |
| 2026-04-23 20:36 | 60.10659 | -161.97664 | 39785 ft | 456 kts | 186° |
| 2026-04-23 20:36 | 60.04434 | -161.99028 | 39783 ft | 456 kts | 187° |
| 2026-04-23 20:37 | 59.98190 | -162.00392 | 39786 ft | 456 kts | 187° |
| 2026-04-23 20:37 | 59.91873 | -162.01765 | 39787 ft | 456 kts | 186° |
| 2026-04-23 20:38 | 59.85576 | -162.03130 | 39798 ft | 457 kts | 186° |
| 2026-04-23 20:38 | 59.79273 | -162.04491 | 39800 ft | 458 kts | 186° |
| 2026-04-23 20:39 | 59.72879 | -162.05864 | 39803 ft | 458 kts | 186° |
| 2026-04-23 20:39 | 59.66575 | -162.07214 | 39803 ft | 457 kts | 186° |
| 2026-04-23 20:40 | 59.60268 | -162.08560 | 39797 ft | 457 kts | 186° |
| 2026-04-23 20:40 | 59.53958 | -162.09901 | 39801 ft | 457 kts | 187° |
| 2026-04-23 20:41 | 59.47650 | -162.11238 | 39794 ft | 457 kts | 187° |
| 2026-04-23 20:41 | 59.41333 | -162.12570 | 39801 ft | 457 kts | 186° |
| 2026-04-23 20:42 | 59.35038 | -162.13893 | 39804 ft | 456 kts | 186° |
| 2026-04-23 20:42 | 59.28704 | -162.15221 | 39802 ft | 457 kts | 186° |
| 2026-04-23 20:43 | 59.22420 | -162.16531 | 39795 ft | 457 kts | 187° |
| 2026-04-23 20:43 | 59.16058 | -162.17854 | 39805 ft | 457 kts | 186° |
| 2026-04-23 20:44 | 59.09758 | -162.19161 | 39806 ft | 458 kts | 187° |
| 2026-04-23 20:44 | 59.03400 | -162.20473 | 39799 ft | 458 kts | 187° |
| 2026-04-23 20:45 | 58.97083 | -162.21771 | 39796 ft | 458 kts | 187° |
| 2026-04-23 20:45 | 58.90713 | -162.23076 | 39791 ft | 458 kts | 187° |
| 2026-04-23 20:46 | 58.84374 | -162.24370 | 39780 ft | 459 kts | 187° |
| 2026-04-23 20:46 | 58.78059 | -162.25655 | 39790 ft | 459 kts | 187° |
| 2026-04-23 20:47 | 58.71682 | -162.26947 | 39791 ft | 458 kts | 187° |
| 2026-04-23 20:47 | 58.65394 | -162.28217 | 39792 ft | 458 kts | 187° |
| 2026-04-23 20:48 | 58.59038 | -162.29495 | 39791 ft | 457 kts | 187° |
| 2026-04-23 20:48 | 58.52741 | -162.30757 | 39790 ft | 457 kts | 187° |
| 2026-04-23 20:49 | 58.46392 | -162.32025 | 39797 ft | 457 kts | 187° |
| 2026-04-23 20:49 | 58.40042 | -162.33289 | 39800 ft | 457 kts | 187° |
| 2026-04-23 20:50 | 58.33696 | -162.34546 | 39793 ft | 458 kts | 187° |
| 2026-04-23 20:50 | 58.27367 | -162.35797 | 39796 ft | 458 kts | 187° |
| 2026-04-23 20:51 | 58.21064 | -162.37038 | 39793 ft | 457 kts | 187° |
| 2026-04-23 20:51 | 58.14750 | -162.38277 | 39790 ft | 457 kts | 187° |
| 2026-04-23 20:52 | 58.08416 | -162.39514 | 39791 ft | 457 kts | 187° |
| 2026-04-23 20:52 | 58.02082 | -162.40747 | 39786 ft | 456 kts | 187° |
| 2026-04-23 20:53 | 57.95771 | -162.41972 | 39785 ft | 456 kts | 187° |
| 2026-04-23 20:53 | 57.89476 | -162.43188 | 39788 ft | 457 kts | 187° |
| 2026-04-23 20:54 | 57.83123 | -162.44412 | 39782 ft | 457 kts | 187° |
| 2026-04-23 20:54 | 57.76777 | -162.45631 | 39786 ft | 457 kts | 187° |
| 2026-04-23 20:55 | 57.70452 | -162.46841 | 39782 ft | 457 kts | 187° |
| 2026-04-23 20:55 | 57.64062 | -162.48059 | 39784 ft | 457 kts | 187° |
| 2026-04-23 20:56 | 57.57745 | -162.49258 | 39785 ft | 457 kts | 187° |
| 2026-04-23 20:56 | 57.51742 | -162.50395 | 39785 ft | 457 kts | 187° |
| 2026-04-23 20:57 | 57.45511 | -162.51570 | 39778 ft | 457 kts | 187° |
| 2026-04-23 20:57 | 57.39172 | -162.52762 | 39780 ft | 456 kts | 187° |
| 2026-04-23 20:58 | 57.36008 | -162.53355 | 39501 ft | 461 kts | 187° |
| 2026-04-23 20:58 | 57.32795 | -162.53957 | 38941 ft | 458 kts | 187° |
| 2026-04-23 20:58 | 57.29689 | -162.54536 | 38397 ft | 453 kts | 187° |
| 2026-04-23 20:58 | 57.26568 | -162.55118 | 37845 ft | 448 kts | 187° |
| 2026-04-23 20:59 | 57.23848 | -162.55624 | 37313 ft | 448 kts | 187° |
| 2026-04-23 20:59 | 57.20730 | -162.56204 | 36685 ft | 447 kts | 187° |
| 2026-04-23 20:59 | 57.17675 | -162.56770 | 36104 ft | 444 kts | 187° |
| 2026-04-23 20:59 | 57.14627 | -162.57335 | 35519 ft | 441 kts | 187° |
| 2026-04-23 21:00 | 57.11582 | -162.57898 | 34927 ft | 438 kts | 187° |
| 2026-04-23 21:00 | 57.08577 | -162.58455 | 34365 ft | 435 kts | 187° |
| 2026-04-23 21:00 | 57.05539 | -162.59016 | 33829 ft | 438 kts | 187° |
| 2026-04-23 21:00 | 57.02495 | -162.59576 | 33204 ft | 442 kts | 187° |
| 2026-04-23 21:01 | 56.99446 | -162.60136 | 32616 ft | 442 kts | 187° |
| 2026-04-23 21:01 | 56.96407 | -162.60695 | 32037 ft | 441 kts | 187° |
| 2026-04-23 21:01 | 56.93361 | -162.61252 | 31454 ft | 441 kts | 187° |
| 2026-04-23 21:01 | 56.90317 | -162.61809 | 30794 ft | 438 kts | 187° |
| 2026-04-23 21:02 | 56.87323 | -162.62354 | 30292 ft | 431 kts | 187° |
| 2026-04-23 21:02 | 56.84331 | -162.62898 | 29697 ft | 430 kts | 187° |
| 2026-04-23 21:02 | 56.81351 | -162.63440 | 29150 ft | 427 kts | 187° |
| 2026-04-23 21:02 | 56.78443 | -162.63968 | 28588 ft | 422 kts | 187° |
| 2026-04-23 21:03 | 56.75526 | -162.64497 | 28037 ft | 418 kts | 187° |
| 2026-04-23 21:03 | 56.72645 | -162.65018 | 27474 ft | 413 kts | 186° |
| 2026-04-23 21:03 | 56.69824 | -162.65527 | 26936 ft | 409 kts | 186° |
| 2026-04-23 21:03 | 56.66995 | -162.66038 | 26392 ft | 405 kts | 186° |
| 2026-04-23 21:04 | 56.64214 | -162.66539 | 25856 ft | 400 kts | 187° |
| 2026-04-23 21:04 | 56.61453 | -162.67038 | 25326 ft | 396 kts | 186° |
| 2026-04-23 21:04 | 56.58745 | -162.67525 | 24806 ft | 393 kts | 186° |
| 2026-04-23 21:04 | 56.56046 | -162.68008 | 24284 ft | 389 kts | 186° |
| 2026-04-23 21:05 | 56.53352 | -162.68491 | 23775 ft | 385 kts | 186° |
| 2026-04-23 21:05 | 56.50731 | -162.68961 | 23272 ft | 382 kts | 186° |
| 2026-04-23 21:05 | 56.48109 | -162.69431 | 22767 ft | 378 kts | 186° |
| 2026-04-23 21:05 | 56.45480 | -162.69899 | 22261 ft | 374 kts | 186° |
| 2026-04-23 21:06 | 56.42913 | -162.70357 | 21771 ft | 371 kts | 186° |
| 2026-04-23 21:06 | 56.40353 | -162.70811 | 21282 ft | 367 kts | 186° |
| 2026-04-23 21:06 | 56.37834 | -162.71260 | 20795 ft | 363 kts | 186° |
| 2026-04-23 21:06 | 56.35329 | -162.71704 | 20312 ft | 360 kts | 186° |
| 2026-04-23 21:07 | 56.32863 | -162.72142 | 19838 ft | 357 kts | 186° |
| 2026-04-23 21:07 | 56.30393 | -162.72578 | 19357 ft | 354 kts | 186° |
| 2026-04-23 21:07 | 56.27947 | -162.73012 | 18887 ft | 351 kts | 186° |
| 2026-04-23 21:07 | 56.25557 | -162.73434 | 18430 ft | 348 kts | 186° |
| 2026-04-23 21:08 | 56.23140 | -162.73860 | 17967 ft | 345 kts | 186° |
| 2026-04-23 21:08 | 56.20767 | -162.74278 | 17518 ft | 343 kts | 186° |
| 2026-04-23 21:08 | 56.18406 | -162.74693 | 17212 ft | 339 kts | 186° |
| 2026-04-23 21:08 | 56.16066 | -162.75104 | 16792 ft | 341 kts | 186° |
| 2026-04-23 21:09 | 56.13695 | -162.75520 | 16359 ft | 337 kts | 186° |
| 2026-04-23 21:09 | 56.11393 | -162.75923 | 15924 ft | 335 kts | 186° |
| 2026-04-23 21:09 | 56.09056 | -162.76332 | 15482 ft | 333 kts | 185° |
| 2026-04-23 21:09 | 56.06772 | -162.76732 | 15048 ft | 332 kts | 186° |
| 2026-04-23 21:10 | 56.04488 | -162.77130 | 14609 ft | 329 kts | 186° |
| 2026-04-23 21:10 | 56.02207 | -162.77528 | 14170 ft | 327 kts | 186° |
| 2026-04-23 21:10 | 55.99940 | -162.77924 | 13737 ft | 325 kts | 186° |
| 2026-04-23 21:10 | 55.97715 | -162.78310 | 13313 ft | 323 kts | 186° |
| 2026-04-23 21:11 | 55.95501 | -162.78696 | 12876 ft | 316 kts | 186° |
| 2026-04-23 21:11 | 55.93339 | -162.79069 | 12463 ft | 308 kts | 186° |
| 2026-04-23 21:11 | 55.91248 | -162.79433 | 12056 ft | 300 kts | 186° |
| 2026-04-23 21:11 | 55.89179 | -162.79791 | 11668 ft | 291 kts | 186° |
| 2026-04-23 21:12 | 55.87198 | -162.80133 | 11287 ft | 284 kts | 186° |
| 2026-04-23 21:12 | 55.85242 | -162.80470 | 10912 ft | 278 kts | 186° |
| 2026-04-23 21:12 | 55.83345 | -162.80798 | 10543 ft | 272 kts | 186° |
| 2026-04-23 21:12 | 55.81472 | -162.81120 | 10183 ft | 266 kts | 186° |
| 2026-04-23 21:13 | 55.79668 | -162.81432 | 9841 ft | 261 kts | 186° |
| 2026-04-23 21:13 | 55.77862 | -162.81741 | 9491 ft | 256 kts | 185° |
| 2026-04-23 21:13 | 55.76104 | -162.82045 | 9157 ft | 251 kts | 185° |
| 2026-04-23 21:13 | 55.74370 | -162.82342 | 8828 ft | 250 kts | 185° |
| 2026-04-23 21:14 | 55.72629 | -162.82640 | 8500 ft | 251 kts | 185° |
| 2026-04-23 21:14 | 55.70920 | -162.82933 | 8173 ft | 250 kts | 186° |
| 2026-04-23 21:14 | 55.69186 | -162.83231 | 7835 ft | 248 kts | 186° |
| 2026-04-23 21:14 | 55.67477 | -162.83524 | 7518 ft | 246 kts | 186° |
| 2026-04-23 21:15 | 55.65785 | -162.83812 | 7187 ft | 245 kts | 186° |
| 2026-04-23 21:15 | 55.64094 | -162.84100 | 6866 ft | 244 kts | 186° |
| 2026-04-23 21:15 | 55.62408 | -162.84389 | 6540 ft | 242 kts | 186° |
| 2026-04-23 21:15 | 55.60732 | -162.84674 | 6222 ft | 241 kts | 185° |
| 2026-04-23 21:16 | 55.59051 | -162.84961 | 5899 ft | 239 kts | 185° |
| 2026-04-23 21:16 | 55.57421 | -162.85239 | 5588 ft | 236 kts | 185° |
| 2026-04-23 21:16 | 55.55793 | -162.85515 | 5277 ft | 229 kts | 185° |
| 2026-04-23 21:16 | 55.54236 | -162.85779 | 4971 ft | 223 kts | 185° |
| 2026-04-23 21:17 | 55.52708 | -162.86040 | 4686 ft | 217 kts | 185° |
| 2026-04-23 21:17 | 55.51234 | -162.86289 | 4407 ft | 211 kts | 185° |
| 2026-04-23 21:17 | 55.49788 | -162.86534 | 4134 ft | 205 kts | 185° |
| 2026-04-23 21:17 | 55.48366 | -162.86775 | 3862 ft | 201 kts | 185° |
| 2026-04-23 21:18 | 55.46988 | -162.87009 | 3591 ft | 198 kts | 185° |
| 2026-04-23 21:18 | 55.45623 | -162.87239 | 3331 ft | 198 kts | 185° |
| 2026-04-23 21:18 | 55.44246 | -162.87471 | 3057 ft | 197 kts | 185° |
| 2026-04-23 21:18 | 55.42885 | -162.87695 | 2809 ft | 195 kts | 183° |
| 2026-04-23 21:19 | 55.41562 | -162.87331 | 2691 ft | 192 kts | 161° |
| 2026-04-23 21:19 | 55.40307 | -162.86415 | 2706 ft | 196 kts | 160° |
| 2026-04-23 21:19 | 55.39047 | -162.85521 | 2707 ft | 197 kts | 161° |
| 2026-04-23 21:19 | 55.37807 | -162.84653 | 2720 ft | 185 kts | 160° |
| 2026-04-23 21:20 | 55.36614 | -162.83817 | 2716 ft | 182 kts | 161° |
| 2026-04-23 21:20 | 55.35433 | -162.82991 | 2712 ft | 179 kts | 161° |
| 2026-04-23 21:20 | 55.34356 | -162.82234 | 2706 ft | 151 kts | 161° |
| 2026-04-23 21:20 | 55.33481 | -162.81616 | 2648 ft | 122 kts | 162° |
| 2026-04-23 21:21 | 55.32717 | -162.81085 | 2508 ft | 114 kts | 162° |
| 2026-04-23 21:21 | 55.31983 | -162.80579 | 2281 ft | 112 kts | 161° |
| 2026-04-23 21:21 | 55.31259 | -162.80075 | 2113 ft | 111 kts | 161° |
| 2026-04-23 21:21 | 55.30537 | -162.79575 | 1953 ft | 111 kts | 161° |
| 2026-04-23 21:22 | 55.29828 | -162.79079 | 1794 ft | 109 kts | 161° |
| 2026-04-23 21:22 | 55.29112 | -162.78581 | 1636 ft | 109 kts | 160° |
| 2026-04-23 21:22 | 55.28402 | -162.78085 | 1482 ft | 109 kts | 160° |
| 2026-04-23 21:22 | 55.27702 | -162.77599 | 1331 ft | 108 kts | 160° |
| 2026-04-23 21:23 | 55.27001 | -162.77110 | 1177 ft | 107 kts | 160° |
| 2026-04-23 21:23 | 55.26308 | -162.76628 | 1029 ft | 106 kts | 160° |
| 2026-04-23 21:23 | 55.25618 | -162.76147 | 868 ft | 105 kts | 159° |
| 2026-04-23 21:23 | 55.24937 | -162.75673 | 723 ft | 106 kts | 159° |
| 2026-04-23 21:24 | 55.24256 | -162.75200 | 572 ft | 105 kts | 158° |
| 2026-04-23 21:24 | 55.23564 | -162.74724 | 432 ft | 107 kts | 157° |
| 2026-04-23 21:24 | 55.22884 | -162.74260 | 261 ft | 102 kts | 156° |
| 2026-04-23 21:24 | 55.22201 | -162.73775 | 99 ft | 99 kts | 156° |
| 2026-04-23 21:25 | 55.21630 | -162.73370 | 70 ft | 65 kts | 158° |
| 2026-04-23 21:25 | 55.21332 | -162.73167 | 81 ft | 40 kts | 158° |
| 2026-04-23 21:25 | 55.21093 | -162.73003 | 87 ft | 33 kts | 158° |
| 2026-04-23 21:25 | 55.20889 | -162.72862 | 87 ft | 29 kts | 158° |
| 2026-04-23 21:26 | 55.20761 | -162.72771 | 86 ft | 7 kts | 158° |
| 2026-04-23 21:26 | 55.20745 | -162.72693 | 86 ft | 7 kts | 63° |
| 2026-04-23 21:26 | 55.20766 | -162.72600 | 85 ft | 9 kts | 67° |
| 2026-04-23 21:26 | 55.20786 | -162.72472 | 82 ft | 10 kts | 94° |
| 2026-04-23 21:27 | 55.20760 | -162.72403 | 79 ft | 0 kts | 146° |